Aduana, Mexico

6:20 PM EDT on May 25, 2018 (GMT -0400)
Cancun International | | Change Station

Elev 23 ft 21.03 °N, 86.87 °W | Updated 28 minutes ago

Light Rain
Light Rain
75 °F
Feels Like 75 °F
N
5
Wind Variable Wind from NE

Today
High -- | Low -- °F
--% Chance of Precip.
Yesterday
High -- | Low -- °F
Precip. -- in
Pressure 29.79 in
Visibility 4.0 miles
Clouds Scattered Clouds 1000 ft
Mostly Cloudy 10000 ft
Overcast 25000 ft
Dew Point 73 °F
Humidity 94%
Rainfall 0.15 in
Snow Depth Not available.
7:06 AM 8:22 PM
Waxing Gibbous, 87% visible
METAR MMUN 252152Z 04004KT 4SM -RA SCT010CB BKN100 OVC250 24/23 A2979 RMK 60025 8/377 BINOVC
Pressure 29.79 in
Visibility 4.0 miles
Clouds Scattered Clouds 1000 ft
Mostly Cloudy 10000 ft
Overcast 25000 ft
Dew Point 73 °F
Humidity 94%
Rainfall 0.15 in
Snow Depth Not available.
7:06 AM 8:22 PM
Waxing Gibbous, 87% visible
METAR MMUN 252152Z 04004KT 4SM -RA SCT010CB BKN100 OVC250 24/23 A2979 RMK 60025 8/377 BINOVC

Get Severe Weather Alerts

Thanks for signing up!

Be on the lookout for a verification email in your inbox.

You'll start receiving the daily forecast at 6 AM.

×

10-Day Weather Forecast

No radar image for this location.
×

Almanac

Astronomy

May. 25, 2018 Rise Set
Actual Time
Civil Twilight
Nautical Twilight
Astronomical Twilight
Moon
Length of Visible Light
Length of Day
Tomorrow will be .
, % of the Moon is Illuminated

Today's Extremes

Country Highs Country Lows

Community

WunderPhotos

Category 6

Welcome to Category 6. This is the collective home for Weather Underground's featured writeups by Dr. Jeff Masters (right), Bob Henson (left), Chris Burt, and other regular contributors.

Nearby

Air Quality

  Air Quality AQ Index Pollutant
Not available.

Snow Depth

Station Depth Elevation

Earthquake Activity

City Distance Mag. Time & Date
Minimum magnitude displayed is 2.5.

Coastal Water Temperatures

Place Temperature

Stations

Nearby Weather Stations

Station Location Temp. Windchill Dew Point Humidity Wind Precip. Elev Updated Type